sensor_id;sensor_type;location;lat;lon;timestamp;P1;durP1;ratioP1;P2;durP2;ratioP2
82028;SDS011;71590;52.216;13.448;2023-07-31T00:00:06;4.83;;;3.23;;
82028;SDS011;71590;52.216;13.448;2023-07-31T00:05:09;6.70;;;2.97;;
82028;SDS011;71590;52.216;13.448;2023-07-31T00:10:10;5.83;;;3.40;;
82028;SDS011;71590;52.216;13.448;2023-07-31T00:15:11;5.27;;;3.40;;
82028;SDS011;71590;52.216;13.448;2023-07-31T00:20:12;8.57;;;3.60;;
82028;SDS011;71590;52.216;13.448;2023-07-31T00:25:13;4.57;;;3.40;;
82028;SDS011;71590;52.216;13.448;2023-07-31T00:30:14;7.83;;;3.80;;
82028;SDS011;71590;52.216;13.448;2023-07-31T00:35:16;9.33;;;4.10;;
82028;SDS011;71590;52.216;13.448;2023-07-31T00:40:17;4.20;;;2.93;;
82028;SDS011;71590;52.216;13.448;2023-07-31T00:45:18;3.63;;;3.23;;
82028;SDS011;71590;52.216;13.448;2023-07-31T00:50:19;6.73;;;3.70;;
82028;SDS011;71590;52.216;13.448;2023-07-31T00:55:20;4.90;;;3.50;;
82028;SDS011;71590;52.216;13.448;2023-07-31T01:00:22;4.40;;;3.37;;
82028;SDS011;71590;52.216;13.448;2023-07-31T01:05:39;4.87;;;3.33;;
82028;SDS011;71590;52.216;13.448;2023-07-31T01:10:49;4.27;;;3.33;;
82028;SDS011;71590;52.216;13.448;2023-07-31T01:15:52;4.43;;;3.23;;
82028;SDS011;71590;52.216;13.448;2023-07-31T01:20:58;5.90;;;3.13;;
82028;SDS011;71590;52.216;13.448;2023-07-31T01:26:23;6.43;;;3.17;;
82028;SDS011;71590;52.216;13.448;2023-07-31T01:31:26;8.97;;;3.23;;
82028;SDS011;71590;52.216;13.448;2023-07-31T01:36:30;3.73;;;2.93;;
82028;SDS011;71590;52.216;13.448;2023-07-31T01:41:31;4.63;;;3.10;;
82028;SDS011;71590;52.216;13.448;2023-07-31T01:46:32;4.80;;;3.07;;
82028;SDS011;71590;52.216;13.448;2023-07-31T01:51:33;7.80;;;4.00;;
82028;SDS011;71590;52.216;13.448;2023-07-31T01:56:34;4.73;;;3.50;;
82028;SDS011;71590;52.216;13.448;2023-07-31T02:01:35;5.27;;;3.13;;
82028;SDS011;71590;52.216;13.448;2023-07-31T02:06:37;3.77;;;3.47;;
82028;SDS011;71590;52.216;13.448;2023-07-31T02:11:40;4.90;;;3.03;;
82028;SDS011;71590;52.216;13.448;2023-07-31T02:16:41;6.10;;;3.47;;
82028;SDS011;71590;52.216;13.448;2023-07-31T02:21:42;4.00;;;3.33;;
82028;SDS011;71590;52.216;13.448;2023-07-31T02:26:43;4.37;;;3.93;;
82028;SDS011;71590;52.216;13.448;2023-07-31T02:31:44;3.93;;;3.40;;
82028;SDS011;71590;52.216;13.448;2023-07-31T02:36:45;3.97;;;3.23;;
82028;SDS011;71590;52.216;13.448;2023-07-31T02:41:46;4.07;;;3.67;;
82028;SDS011;71590;52.216;13.448;2023-07-31T02:46:47;8.67;;;3.93;;
82028;SDS011;71590;52.216;13.448;2023-07-31T02:51:49;4.27;;;3.20;;
82028;SDS011;71590;52.216;13.448;2023-07-31T02:56:50;4.30;;;3.40;;
82028;SDS011;71590;52.216;13.448;2023-07-31T03:01:51;5.87;;;3.30;;
82028;SDS011;71590;52.216;13.448;2023-07-31T03:06:52;6.37;;;2.80;;
82028;SDS011;71590;52.216;13.448;2023-07-31T03:11:53;2.63;;;2.23;;
82028;SDS011;71590;52.216;13.448;2023-07-31T03:16:54;5.80;;;2.70;;
82028;SDS011;71590;52.216;13.448;2023-07-31T03:21:55;5.30;;;2.50;;
82028;SDS011;71590;52.216;13.448;2023-07-31T03:26:56;6.40;;;2.57;;
82028;SDS011;71590;52.216;13.448;2023-07-31T03:31:57;4.73;;;2.83;;
82028;SDS011;71590;52.216;13.448;2023-07-31T03:36:59;4.60;;;2.60;;
82028;SDS011;71590;52.216;13.448;2023-07-31T03:42:00;6.97;;;2.70;;
82028;SDS011;71590;52.216;13.448;2023-07-31T03:47:03;6.57;;;3.10;;
82028;SDS011;71590;52.216;13.448;2023-07-31T03:52:04;4.27;;;2.93;;
82028;SDS011;71590;52.216;13.448;2023-07-31T03:57:05;5.07;;;3.33;;
82028;SDS011;71590;52.216;13.448;2023-07-31T04:02:06;10.10;;;3.57;;
82028;SDS011;71590;52.216;13.448;2023-07-31T04:07:07;6.73;;;3.37;;
82028;SDS011;71590;52.216;13.448;2023-07-31T04:12:08;5.67;;;3.30;;
82028;SDS011;71590;52.216;13.448;2023-07-31T04:17:09;5.60;;;2.93;;
82028;SDS011;71590;52.216;13.448;2023-07-31T04:22:10;5.83;;;3.10;;
82028;SDS011;71590;52.216;13.448;2023-07-31T04:27:11;4.63;;;2.60;;
82028;SDS011;71590;52.216;13.448;2023-07-31T04:32:12;4.87;;;2.87;;
82028;SDS011;71590;52.216;13.448;2023-07-31T04:37:13;5.80;;;3.00;;
82028;SDS011;71590;52.216;13.448;2023-07-31T04:42:14;4.23;;;2.50;;
82028;SDS011;71590;52.216;13.448;2023-07-31T04:47:15;5.07;;;2.90;;
82028;SDS011;71590;52.216;13.448;2023-07-31T04:52:16;4.77;;;2.73;;
82028;SDS011;71590;52.216;13.448;2023-07-31T04:57:17;4.73;;;2.70;;
82028;SDS011;71590;52.216;13.448;2023-07-31T05:02:18;5.27;;;2.67;;
82028;SDS011;71590;52.216;13.448;2023-07-31T05:07:18;6.73;;;2.80;;
82028;SDS011;71590;52.216;13.448;2023-07-31T05:12:20;3.17;;;2.57;;
82028;SDS011;71590;52.216;13.448;2023-07-31T05:17:21;3.77;;;2.53;;
82028;SDS011;71590;52.216;13.448;2023-07-31T05:22:22;5.57;;;2.73;;
82028;SDS011;71590;52.216;13.448;2023-07-31T05:27:22;3.70;;;2.47;;
82028;SDS011;71590;52.216;13.448;2023-07-31T05:32:23;3.57;;;2.37;;
82028;SDS011;71590;52.216;13.448;2023-07-31T05:37:24;8.73;;;2.83;;
82028;SDS011;71590;52.216;13.448;2023-07-31T05:42:25;4.30;;;2.80;;
82028;SDS011;71590;52.216;13.448;2023-07-31T05:47:26;6.23;;;2.83;;
82028;SDS011;71590;52.216;13.448;2023-07-31T05:52:27;4.60;;;2.80;;
82028;SDS011;71590;52.216;13.448;2023-07-31T05:57:29;4.93;;;3.03;;
82028;SDS011;71590;52.216;13.448;2023-07-31T06:02:30;4.43;;;2.87;;
82028;SDS011;71590;52.216;13.448;2023-07-31T06:07:33;8.07;;;3.40;;
82028;SDS011;71590;52.216;13.448;2023-07-31T06:12:34;7.00;;;3.00;;
82028;SDS011;71590;52.216;13.448;2023-07-31T06:17:35;5.17;;;2.80;;
82028;SDS011;71590;52.216;13.448;2023-07-31T06:22:36;6.20;;;3.00;;
82028;SDS011;71590;52.216;13.448;2023-07-31T06:27:38;4.60;;;2.47;;
82028;SDS011;71590;52.216;13.448;2023-07-31T06:32:39;7.70;;;2.90;;
82028;SDS011;71590;52.216;13.448;2023-07-31T06:37:40;5.57;;;2.77;;
82028;SDS011;71590;52.216;13.448;2023-07-31T06:42:44;6.37;;;3.03;;
82028;SDS011;71590;52.216;13.448;2023-07-31T06:47:45;6.47;;;2.93;;
82028;SDS011;71590;52.216;13.448;2023-07-31T06:52:46;4.17;;;2.87;;
82028;SDS011;71590;52.216;13.448;2023-07-31T06:57:50;4.90;;;2.73;;
82028;SDS011;71590;52.216;13.448;2023-07-31T07:02:51;4.77;;;2.87;;
82028;SDS011;71590;52.216;13.448;2023-07-31T07:07:52;4.43;;;2.80;;
82028;SDS011;71590;52.216;13.448;2023-07-31T07:12:54;6.70;;;2.77;;
82028;SDS011;71590;52.216;13.448;2023-07-31T07:17:55;4.40;;;2.83;;
82028;SDS011;71590;52.216;13.448;2023-07-31T07:22:56;4.77;;;3.00;;
82028;SDS011;71590;52.216;13.448;2023-07-31T07:27:57;8.10;;;3.60;;
82028;SDS011;71590;52.216;13.448;2023-07-31T07:32:58;5.10;;;3.67;;
82028;SDS011;71590;52.216;13.448;2023-07-31T07:37:59;3.50;;;3.20;;
82028;SDS011;71590;52.216;13.448;2023-07-31T07:43:00;5.13;;;3.20;;
82028;SDS011;71590;52.216;13.448;2023-07-31T07:48:02;5.27;;;3.10;;
82028;SDS011;71590;52.216;13.448;2023-07-31T07:53:03;5.50;;;2.80;;
82028;SDS011;71590;52.216;13.448;2023-07-31T07:58:04;7.83;;;2.93;;
82028;SDS011;71590;52.216;13.448;2023-07-31T08:03:05;5.30;;;2.90;;
82028;SDS011;71590;52.216;13.448;2023-07-31T08:08:06;3.87;;;2.70;;
82028;SDS011;71590;52.216;13.448;2023-07-31T08:13:07;4.87;;;3.30;;
82028;SDS011;71590;52.216;13.448;2023-07-31T08:18:09;5.63;;;3.10;;
82028;SDS011;71590;52.216;13.448;2023-07-31T08:23:10;4.33;;;3.30;;
82028;SDS011;71590;52.216;13.448;2023-07-31T08:28:11;6.23;;;3.73;;
82028;SDS011;71590;52.216;13.448;2023-07-31T08:33:12;3.77;;;2.63;;
82028;SDS011;71590;52.216;13.448;2023-07-31T08:38:13;4.27;;;3.03;;
82028;SDS011;71590;52.216;13.448;2023-07-31T08:43:14;4.27;;;3.03;;
82028;SDS011;71590;52.216;13.448;2023-07-31T08:48:15;4.27;;;3.17;;
82028;SDS011;71590;52.216;13.448;2023-07-31T08:53:16;5.73;;;3.23;;
82028;SDS011;71590;52.216;13.448;2023-07-31T08:58:17;6.17;;;3.80;;
82028;SDS011;71590;52.216;13.448;2023-07-31T09:03:19;5.83;;;4.10;;
82028;SDS011;71590;52.216;13.448;2023-07-31T09:08:21;6.07;;;4.20;;
82028;SDS011;71590;52.216;13.448;2023-07-31T09:13:22;6.40;;;4.03;;
82028;SDS011;71590;52.216;13.448;2023-07-31T09:18:23;4.80;;;3.83;;
82028;SDS011;71590;52.216;13.448;2023-07-31T09:23:24;6.07;;;3.77;;
82028;SDS011;71590;52.216;13.448;2023-07-31T09:28:30;6.73;;;3.30;;
82028;SDS011;71590;52.216;13.448;2023-07-31T09:33:31;5.23;;;3.17;;
82028;SDS011;71590;52.216;13.448;2023-07-31T09:38:33;4.13;;;2.90;;
82028;SDS011;71590;52.216;13.448;2023-07-31T09:43:34;3.20;;;2.90;;
82028;SDS011;71590;52.216;13.448;2023-07-31T09:48:38;4.97;;;3.43;;
82028;SDS011;71590;52.216;13.448;2023-07-31T09:53:39;4.30;;;3.03;;
82028;SDS011;71590;52.216;13.448;2023-07-31T09:58:40;6.43;;;3.10;;
82028;SDS011;71590;52.216;13.448;2023-07-31T10:03:42;4.03;;;3.10;;
82028;SDS011;71590;52.216;13.448;2023-07-31T10:08:44;4.97;;;2.90;;
82028;SDS011;71590;52.216;13.448;2023-07-31T10:13:48;5.57;;;3.30;;
82028;SDS011;71590;52.216;13.448;2023-07-31T10:18:50;3.17;;;2.70;;
82028;SDS011;71590;52.216;13.448;2023-07-31T10:23:51;3.97;;;3.03;;
82028;SDS011;71590;52.216;13.448;2023-07-31T10:28:52;3.60;;;3.13;;
82028;SDS011;71590;52.216;13.448;2023-07-31T10:33:54;3.53;;;2.90;;
82028;SDS011;71590;52.216;13.448;2023-07-31T10:38:56;4.33;;;2.87;;
82028;SDS011;71590;52.216;13.448;2023-07-31T10:43:58;3.40;;;2.87;;
82028;SDS011;71590;52.216;13.448;2023-07-31T10:49:00;3.70;;;2.60;;
82028;SDS011;71590;52.216;13.448;2023-07-31T10:54:15;3.40;;;3.10;;
82028;SDS011;71590;52.216;13.448;2023-07-31T10:59:18;3.43;;;2.87;;
82028;SDS011;71590;52.216;13.448;2023-07-31T11:04:26;3.83;;;3.07;;
82028;SDS011;71590;52.216;13.448;2023-07-31T11:09:28;5.73;;;3.13;;
82028;SDS011;71590;52.216;13.448;2023-07-31T11:14:30;4.97;;;3.03;;
82028;SDS011;71590;52.216;13.448;2023-07-31T11:19:31;5.40;;;3.10;;
82028;SDS011;71590;52.216;13.448;2023-07-31T11:24:32;4.20;;;2.83;;
82028;SDS011;71590;52.216;13.448;2023-07-31T11:29:34;4.30;;;2.83;;
82028;SDS011;71590;52.216;13.448;2023-07-31T11:34:50;5.33;;;2.93;;
82028;SDS011;71590;52.216;13.448;2023-07-31T11:40:00;4.00;;;3.00;;
82028;SDS011;71590;52.216;13.448;2023-07-31T11:45:05;4.33;;;3.20;;
82028;SDS011;71590;52.216;13.448;2023-07-31T11:50:09;4.27;;;3.30;;
82028;SDS011;71590;52.216;13.448;2023-07-31T11:55:12;3.73;;;2.70;;
82028;SDS011;71590;52.216;13.448;2023-07-31T12:00:14;2.80;;;2.47;;
82028;SDS011;71590;52.216;13.448;2023-07-31T12:05:16;3.97;;;2.33;;
82028;SDS011;71590;52.216;13.448;2023-07-31T12:10:27;3.80;;;2.07;;
82028;SDS011;71590;52.216;13.448;2023-07-31T12:15:37;7.07;;;2.60;;
82028;SDS011;71590;52.216;13.448;2023-07-31T12:20:42;3.23;;;2.50;;
82028;SDS011;71590;52.216;13.448;2023-07-31T12:25:43;3.50;;;2.67;;
82028;SDS011;71590;52.216;13.448;2023-07-31T12:30:45;2.67;;;2.27;;
82028;SDS011;71590;52.216;13.448;2023-07-31T12:35:46;3.83;;;2.57;;
82028;SDS011;71590;52.216;13.448;2023-07-31T12:40:47;4.37;;;2.50;;
82028;SDS011;71590;52.216;13.448;2023-07-31T12:45:48;4.77;;;2.97;;
82028;SDS011;71590;52.216;13.448;2023-07-31T12:50:49;3.47;;;3.17;;
82028;SDS011;71590;52.216;13.448;2023-07-31T12:55:50;4.30;;;3.23;;
82028;SDS011;71590;52.216;13.448;2023-07-31T13:00:51;4.50;;;3.00;;
82028;SDS011;71590;52.216;13.448;2023-07-31T13:05:52;3.70;;;2.97;;
82028;SDS011;71590;52.216;13.448;2023-07-31T13:10:53;3.67;;;3.03;;
82028;SDS011;71590;52.216;13.448;2023-07-31T13:15:54;3.40;;;3.00;;
82028;SDS011;71590;52.216;13.448;2023-07-31T13:20:55;4.20;;;3.53;;
82028;SDS011;71590;52.216;13.448;2023-07-31T13:25:56;4.50;;;3.83;;
82028;SDS011;71590;52.216;13.448;2023-07-31T13:30:57;4.20;;;3.43;;
82028;SDS011;71590;52.216;13.448;2023-07-31T13:35:58;5.90;;;3.33;;
82028;SDS011;71590;52.216;13.448;2023-07-31T13:40:59;6.65;;;3.75;;
82028;SDS011;71590;52.216;13.448;2023-07-31T13:46:00;6.50;;;3.23;;
82028;SDS011;71590;52.216;13.448;2023-07-31T13:51:06;4.68;;;3.92;;
82028;SDS011;71590;52.216;13.448;2023-07-31T13:56:07;6.28;;;3.63;;
82028;SDS011;71590;52.216;13.448;2023-07-31T14:01:08;7.13;;;3.90;;
82028;SDS011;71590;52.216;13.448;2023-07-31T14:06:09;5.03;;;3.60;;
82028;SDS011;71590;52.216;13.448;2023-07-31T14:11:11;6.80;;;3.58;;
82028;SDS011;71590;52.216;13.448;2023-07-31T14:16:11;4.43;;;3.78;;
82028;SDS011;71590;52.216;13.448;2023-07-31T14:21:12;4.88;;;3.22;;
82028;SDS011;71590;52.216;13.448;2023-07-31T14:26:14;5.35;;;3.63;;
82028;SDS011;71590;52.216;13.448;2023-07-31T14:31:14;5.22;;;3.70;;
82028;SDS011;71590;52.216;13.448;2023-07-31T14:36:15;6.38;;;3.53;;
82028;SDS011;71590;52.216;13.448;2023-07-31T14:41:16;3.45;;;3.15;;
82028;SDS011;71590;52.216;13.448;2023-07-31T14:46:17;5.63;;;3.78;;
82028;SDS011;71590;52.216;13.448;2023-07-31T14:51:18;4.55;;;3.60;;
82028;SDS011;71590;52.216;13.448;2023-07-31T14:56:19;4.82;;;3.28;;
82028;SDS011;71590;52.216;13.448;2023-07-31T15:01:20;4.90;;;3.60;;
82028;SDS011;71590;52.216;13.448;2023-07-31T15:06:21;4.10;;;3.50;;
82028;SDS011;71590;52.216;13.448;2023-07-31T15:11:22;4.30;;;3.75;;
82028;SDS011;71590;52.216;13.448;2023-07-31T15:16:23;7.65;;;3.92;;
82028;SDS011;71590;52.216;13.448;2023-07-31T15:21:24;4.85;;;3.50;;
82028;SDS011;71590;52.216;13.448;2023-07-31T15:26:25;4.35;;;3.70;;
82028;SDS011;71590;52.216;13.448;2023-07-31T15:31:26;4.13;;;3.67;;
82028;SDS011;71590;52.216;13.448;2023-07-31T15:36:27;5.57;;;3.80;;
82028;SDS011;71590;52.216;13.448;2023-07-31T15:41:28;5.07;;;3.65;;
82028;SDS011;71590;52.216;13.448;2023-07-31T15:46:29;4.78;;;3.50;;
82028;SDS011;71590;52.216;13.448;2023-07-31T15:51:30;5.47;;;3.85;;
82028;SDS011;71590;52.216;13.448;2023-07-31T15:56:31;4.60;;;3.60;;
82028;SDS011;71590;52.216;13.448;2023-07-31T16:01:32;4.90;;;4.40;;
82028;SDS011;71590;52.216;13.448;2023-07-31T16:06:33;5.38;;;3.83;;
82028;SDS011;71590;52.216;13.448;2023-07-31T16:11:34;4.28;;;3.42;;
82028;SDS011;71590;52.216;13.448;2023-07-31T16:16:35;5.63;;;3.65;;
82028;SDS011;71590;52.216;13.448;2023-07-31T16:21:36;6.28;;;3.38;;
82028;SDS011;71590;52.216;13.448;2023-07-31T16:26:37;5.80;;;3.33;;
82028;SDS011;71590;52.216;13.448;2023-07-31T16:31:38;5.30;;;3.47;;
82028;SDS011;71590;52.216;13.448;2023-07-31T16:36:39;5.57;;;3.28;;
82028;SDS011;71590;52.216;13.448;2023-07-31T16:41:40;4.15;;;3.17;;
82028;SDS011;71590;52.216;13.448;2023-07-31T16:46:41;5.43;;;2.90;;
82028;SDS011;71590;52.216;13.448;2023-07-31T16:51:42;6.50;;;3.10;;
82028;SDS011;71590;52.216;13.448;2023-07-31T16:56:43;4.57;;;3.03;;
82028;SDS011;71590;52.216;13.448;2023-07-31T17:01:44;4.50;;;2.58;;
82028;SDS011;71590;52.216;13.448;2023-07-31T17:06:45;5.93;;;3.40;;
82028;SDS011;71590;52.216;13.448;2023-07-31T17:11:46;3.83;;;2.70;;
82028;SDS011;71590;52.216;13.448;2023-07-31T17:16:47;5.13;;;2.95;;
82028;SDS011;71590;52.216;13.448;2023-07-31T17:21:48;3.30;;;3.00;;
82028;SDS011;71590;52.216;13.448;2023-07-31T17:26:49;4.90;;;2.70;;
82028;SDS011;71590;52.216;13.448;2023-07-31T17:31:50;3.03;;;2.60;;
82028;SDS011;71590;52.216;13.448;2023-07-31T17:36:51;5.57;;;2.70;;
82028;SDS011;71590;52.216;13.448;2023-07-31T17:41:52;4.50;;;2.60;;
82028;SDS011;71590;52.216;13.448;2023-07-31T17:46:54;6.07;;;3.17;;
82028;SDS011;71590;52.216;13.448;2023-07-31T17:51:55;4.47;;;2.67;;
82028;SDS011;71590;52.216;13.448;2023-07-31T17:56:56;3.27;;;2.93;;
82028;SDS011;71590;52.216;13.448;2023-07-31T18:01:57;4.00;;;2.83;;
82028;SDS011;71590;52.216;13.448;2023-07-31T18:06:58;4.07;;;3.07;;
82028;SDS011;71590;52.216;13.448;2023-07-31T18:11:59;4.43;;;3.17;;
82028;SDS011;71590;52.216;13.448;2023-07-31T18:17:01;3.33;;;3.00;;
82028;SDS011;71590;52.216;13.448;2023-07-31T18:22:03;6.30;;;3.50;;
82028;SDS011;71590;52.216;13.448;2023-07-31T18:27:04;4.00;;;2.93;;
82028;SDS011;71590;52.216;13.448;2023-07-31T18:32:05;3.90;;;2.93;;
82028;SDS011;71590;52.216;13.448;2023-07-31T18:37:08;4.37;;;3.20;;
82028;SDS011;71590;52.216;13.448;2023-07-31T18:42:09;4.70;;;3.50;;
82028;SDS011;71590;52.216;13.448;2023-07-31T18:47:10;4.70;;;3.50;;
82028;SDS011;71590;52.216;13.448;2023-07-31T18:52:11;5.63;;;3.30;;
82028;SDS011;71590;52.216;13.448;2023-07-31T18:57:12;5.80;;;3.00;;
82028;SDS011;71590;52.216;13.448;2023-07-31T19:02:13;5.10;;;3.50;;
82028;SDS011;71590;52.216;13.448;2023-07-31T19:07:15;5.23;;;3.17;;
82028;SDS011;71590;52.216;13.448;2023-07-31T19:12:16;5.77;;;3.67;;
82028;SDS011;71590;52.216;13.448;2023-07-31T19:17:17;4.33;;;3.17;;
82028;SDS011;71590;52.216;13.448;2023-07-31T19:22:18;6.07;;;3.63;;
82028;SDS011;71590;52.216;13.448;2023-07-31T19:27:19;4.93;;;3.80;;
82028;SDS011;71590;52.216;13.448;2023-07-31T19:32:19;7.17;;;3.50;;
82028;SDS011;71590;52.216;13.448;2023-07-31T19:37:21;4.87;;;3.50;;
82028;SDS011;71590;52.216;13.448;2023-07-31T19:42:22;4.80;;;3.53;;
82028;SDS011;71590;52.216;13.448;2023-07-31T19:47:23;5.97;;;3.57;;
82028;SDS011;71590;52.216;13.448;2023-07-31T19:52:24;6.83;;;4.40;;
82028;SDS011;71590;52.216;13.448;2023-07-31T19:57:25;6.73;;;4.37;;
82028;SDS011;71590;52.216;13.448;2023-07-31T20:02:26;4.27;;;3.73;;
82028;SDS011;71590;52.216;13.448;2023-07-31T20:07:27;5.83;;;3.83;;
82028;SDS011;71590;52.216;13.448;2023-07-31T20:12:29;4.50;;;3.97;;
82028;SDS011;71590;52.216;13.448;2023-07-31T20:17:30;6.50;;;3.90;;
82028;SDS011;71590;52.216;13.448;2023-07-31T20:22:32;7.80;;;3.97;;
82028;SDS011;71590;52.216;13.448;2023-07-31T20:27:33;4.13;;;3.43;;
82028;SDS011;71590;52.216;13.448;2023-07-31T20:32:33;5.53;;;3.90;;
82028;SDS011;71590;52.216;13.448;2023-07-31T20:37:34;4.93;;;3.80;;
82028;SDS011;71590;52.216;13.448;2023-07-31T20:42:35;7.00;;;3.83;;
82028;SDS011;71590;52.216;13.448;2023-07-31T20:47:37;5.17;;;3.77;;
82028;SDS011;71590;52.216;13.448;2023-07-31T20:52:38;6.63;;;3.83;;
82028;SDS011;71590;52.216;13.448;2023-07-31T20:57:39;7.90;;;3.77;;
82028;SDS011;71590;52.216;13.448;2023-07-31T21:02:40;6.80;;;4.07;;
82028;SDS011;71590;52.216;13.448;2023-07-31T21:07:41;7.50;;;3.53;;
82028;SDS011;71590;52.216;13.448;2023-07-31T21:12:42;4.83;;;3.80;;
82028;SDS011;71590;52.216;13.448;2023-07-31T21:17:43;5.80;;;4.00;;
82028;SDS011;71590;52.216;13.448;2023-07-31T21:22:45;5.20;;;3.90;;
82028;SDS011;71590;52.216;13.448;2023-07-31T21:27:46;6.03;;;3.87;;
82028;SDS011;71590;52.216;13.448;2023-07-31T21:32:47;8.00;;;3.80;;
82028;SDS011;71590;52.216;13.448;2023-07-31T21:37:53;4.70;;;3.70;;
82028;SDS011;71590;52.216;13.448;2023-07-31T21:42:57;4.17;;;3.80;;
82028;SDS011;71590;52.216;13.448;2023-07-31T21:47:58;4.10;;;3.70;;
82028;SDS011;71590;52.216;13.448;2023-07-31T21:52:59;4.40;;;4.00;;
82028;SDS011;71590;52.216;13.448;2023-07-31T21:58:00;5.93;;;3.87;;
82028;SDS011;71590;52.216;13.448;2023-07-31T22:03:01;4.77;;;3.60;;
82028;SDS011;71590;52.216;13.448;2023-07-31T22:08:02;7.83;;;4.37;;
82028;SDS011;71590;52.216;13.448;2023-07-31T22:13:03;5.67;;;3.50;;
82028;SDS011;71590;52.216;13.448;2023-07-31T22:18:07;4.33;;;3.77;;
82028;SDS011;71590;52.216;13.448;2023-07-31T22:23:08;6.83;;;3.77;;
82028;SDS011;71590;52.216;13.448;2023-07-31T22:28:08;4.73;;;4.00;;
82028;SDS011;71590;52.216;13.448;2023-07-31T22:33:09;8.67;;;3.93;;
82028;SDS011;71590;52.216;13.448;2023-07-31T22:38:10;6.87;;;4.20;;
82028;SDS011;71590;52.216;13.448;2023-07-31T22:43:11;4.03;;;3.50;;
82028;SDS011;71590;52.216;13.448;2023-07-31T22:48:13;7.03;;;3.70;;
82028;SDS011;71590;52.216;13.448;2023-07-31T22:53:14;5.07;;;4.00;;
82028;SDS011;71590;52.216;13.448;2023-07-31T22:58:15;7.27;;;4.47;;
82028;SDS011;71590;52.216;13.448;2023-07-31T23:03:16;6.33;;;4.17;;
82028;SDS011;71590;52.216;13.448;2023-07-31T23:08:17;7.17;;;4.13;;
82028;SDS011;71590;52.216;13.448;2023-07-31T23:13:18;7.50;;;3.90;;
82028;SDS011;71590;52.216;13.448;2023-07-31T23:18:19;7.03;;;4.00;;
82028;SDS011;71590;52.216;13.448;2023-07-31T23:23:20;6.70;;;4.50;;
82028;SDS011;71590;52.216;13.448;2023-07-31T23:28:21;7.57;;;3.87;;
82028;SDS011;71590;52.216;13.448;2023-07-31T23:33:22;6.43;;;4.13;;
82028;SDS011;71590;52.216;13.448;2023-07-31T23:38:23;5.30;;;3.60;;
82028;SDS011;71590;52.216;13.448;2023-07-31T23:43:24;3.87;;;2.87;;
82028;SDS011;71590;52.216;13.448;2023-07-31T23:48:25;6.57;;;3.17;;
82028;SDS011;71590;52.216;13.448;2023-07-31T23:53:26;4.23;;;3.20;;
82028;SDS011;71590;52.216;13.448;2023-07-31T23:58:27;6.70;;;3.10;;
